Time;durP1;ratioP1;P1;durP2;ratioP2;P2;SDS_P1;SDS_P2;PMS_P1;PMS_P2;Temp;Humidity;BMP_temperature;BMP_pressure;BME280_temperature;BME280_humidity;BME280_pressure;Samples;Min_cycle;Max_cycle;Signal;HPM_P1;HPM_P2
2023/08/21 00:03:44;;;;;;;;;;;;;;;22.25;100.00;96144.38;10527318;28;1992;-70
2023/08/21 00:08:48;;;;;;;;;;;;;;;22.28;100.00;96149.19;10555859;28;2138;-70
2023/08/21 00:13:51;;;;;;;;;;;;;;;22.19;100.00;96140.25;10555042;28;1967;-71
2023/08/21 00:18:54;;;;;;;;;;;;;;;22.04;100.00;96142.47;10555705;28;1967;-70
2023/08/21 00:23:59;;;;;;;;;;;;;;;22.05;100.00;96130.38;10558959;28;1993;-70
2023/08/21 00:29:04;;;;;;;;;;;;;;;22.01;100.00;96139.59;10571767;27;1896;-71
2023/08/21 00:34:09;;;;;;;;;;;;;;;22.26;100.00;96135.81;10540351;28;2022;-69
2023/08/21 00:39:14;;;;;;;;;;;;;;;22.08;100.00;96126.19;10554899;28;2209;-69
2023/08/21 00:44:17;;;;;;;;;;;;;;;22.29;100.00;96123.41;10551462;28;5122;-69
2023/08/21 00:49:20;;;;;;;;;;;;;;;22.12;100.00;96125.19;10557886;28;1957;-69
2023/08/21 00:54:27;;;;;;;;;;;;;;;22.23;100.00;96113.81;10555857;28;1994;-67
2023/08/21 00:59:30;;;;;;;;;;;;;;;22.21;100.00;96116.88;10552548;28;2238;-69
2023/08/21 01:04:33;;;;;;;;;;;;;;;22.33;100.00;96122.38;10547412;28;2139;-68
2023/08/21 01:09:36;;;;;;;;;;;;;;;21.88;100.00;96125.09;10538149;28;2103;-69
2023/08/21 01:14:39;;;;;;;;;;;;;;;21.72;100.00;96133.13;10548792;28;2248;-68
2023/08/21 01:19:42;;;;;;;;;;;;;;;21.53;100.00;96128.16;10569279;27;2025;-69
2023/08/21 01:24:48;;;;;;;;;;;;;;;21.41;100.00;96122.63;10540548;28;1977;-69
2023/08/21 01:29:51;;;;;;;;;;;;;;;21.36;100.00;96128.28;10541223;27;1959;-69
2023/08/21 01:34:54;;;;;;;;;;;;;;;21.30;100.00;96133.16;10542515;27;2006;-69
2023/08/21 01:39:57;;;;;;;;;;;;;;;21.34;100.00;96124.31;10558895;27;5220;-69
2023/08/21 01:45:00;;;;;;;;;;;;;;;21.19;100.00;96125.69;10562657;27;2018;-69
2023/08/21 01:50:08;;;;;;;;;;;;;;;21.14;100.00;96128.59;10561732;27;1978;-70
2023/08/21 01:55:11;;;;;;;;;;;;;;;21.05;100.00;96137.66;10557169;27;2008;-68
2023/08/21 02:00:15;;;;;;;;;;;;;;;20.97;100.00;96135.78;10556438;28;1926;-68
2023/08/21 02:05:18;;;;;;;;;;;;;;;20.88;100.00;96139.72;10559196;27;2182;-69
2023/08/21 02:10:22;;;;;;;;;;;;;;;20.73;100.00;96141.06;10561120;27;2003;-69
2023/08/21 02:15:26;;;;;;;;;;;;;;;20.71;100.00;96140.59;10564304;27;2042;-68
2023/08/21 02:20:31;;;;;;;;;;;;;;;20.76;100.00;96140.41;10558880;27;1953;-69
2023/08/21 02:25:38;;;;;;;;;;;;;;;20.66;100.00;96140.78;10551313;27;1981;-70
2023/08/21 02:30:42;;;;;;;;;;;;;;;20.45;100.00;96146.97;10553305;27;1989;-69
2023/08/21 02:35:47;;;;;;;;;;;;;;;20.39;100.00;96137.34;10559598;27;1981;-71
2023/08/21 02:40:53;;;;;;;;;;;;;;;20.31;100.00;96145.56;10559292;27;5212;-70
2023/08/21 02:45:58;;;;;;;;;;;;;;;20.29;100.00;96137.69;10542400;27;2008;-70
2023/08/21 02:51:05;;;;;;;;;;;;;;;20.46;100.00;96140.38;10537167;27;2186;-73
2023/08/21 02:56:08;;;;;;;;;;;;;;;20.76;100.00;96145.88;10556716;27;2317;-70
2023/08/21 03:01:16;;;;;;;;;;;;;;;20.74;100.00;96151.69;10552937;27;1979;-69
2023/08/21 03:06:21;;;;;;;;;;;;;;;20.88;100.00;96148.72;10554787;27;1965;-73
2023/08/21 03:11:26;;;;;;;;;;;;;;;20.83;100.00;96143.44;10554425;27;2288;-69
2023/08/21 03:16:29;;;;;;;;;;;;;;;20.44;100.00;96156.28;10554334;27;2074;-69
2023/08/21 03:21:33;;;;;;;;;;;;;;;20.22;100.00;96168.22;10553220;28;2258;-70
2023/08/21 03:26:37;;;;;;;;;;;;;;;20.17;100.00;96164.88;10540028;27;2250;-71
2023/08/21 03:31:41;;;;;;;;;;;;;;;19.94;100.00;96181.44;10554014;27;2095;-70
2023/08/21 03:36:46;;;;;;;;;;;;;;;19.81;100.00;96179.72;10556380;28;2249;-69
2023/08/21 03:41:50;;;;;;;;;;;;;;;19.83;100.00;96185.63;10551767;27;5073;-69
2023/08/21 03:46:55;;;;;;;;;;;;;;;19.66;100.00;96193.84;10542162;28;2246;-69
2023/08/21 03:52:01;;;;;;;;;;;;;;;19.66;100.00;96191.13;10536524;28;1982;-69
2023/08/21 03:57:06;;;;;;;;;;;;;;;19.69;100.00;96191.25;10542522;28;2002;-69
2023/08/21 04:02:10;;;;;;;;;;;;;;;19.69;100.00;96196.72;10554241;27;1998;-69
2023/08/21 04:07:14;;;;;;;;;;;;;;;19.66;100.00;96202.03;10554567;28;2081;-69
2023/08/21 04:12:17;;;;;;;;;;;;;;;19.73;100.00;96196.91;10563014;28;2138;-69
2023/08/21 04:17:23;;;;;;;;;;;;;;;20.44;100.00;96186.31;10557824;28;2067;-68
2023/08/21 04:22:26;;;;;;;;;;;;;;;20.94;100.00;96182.91;10554143;28;2122;-73
2023/08/21 04:27:34;;;;;;;;;;;;;;;20.78;100.00;96177.19;10555860;28;1995;-68
2023/08/21 04:32:39;;;;;;;;;;;;;;;20.65;100.00;96183.69;10540187;28;2026;-69
2023/08/21 04:37:44;;;;;;;;;;;;;;;21.15;100.00;96173.94;10556403;28;1967;-69
2023/08/21 04:42:48;;;;;;;;;;;;;;;21.38;100.00;96178.00;10558796;28;5030;-69
2023/08/21 04:47:51;;;;;;;;;;;;;;;21.44;100.00;96171.19;10558857;28;2031;-69
2023/08/21 04:53:01;;;;;;;;;;;;;;;21.36;100.00;96174.78;10549905;27;1977;-70
2023/08/21 04:58:05;;;;;;;;;;;;;;;21.44;100.00;96181.31;10566610;27;1950;-70
2023/08/21 05:03:09;;;;;;;;;;;;;;;21.58;100.00;96192.81;10560649;27;2007;-70
2023/08/21 05:08:12;;;;;;;;;;;;;;;22.02;100.00;96183.09;10559202;27;1959;-70
2023/08/21 05:13:17;;;;;;;;;;;;;;;22.32;100.00;96174.75;10564213;27;2074;-70
2023/08/21 05:18:22;;;;;;;;;;;;;;;22.80;100.00;96182.22;10565430;27;1947;-70
2023/08/21 05:23:30;;;;;;;;;;;;;;;23.14;100.00;96183.72;10559582;27;1986;-71
2023/08/21 05:28:33;;;;;;;;;;;;;;;23.32;100.00;96181.53;10553371;27;2337;-71
2023/08/21 05:33:38;;;;;;;;;;;;;;;23.59;100.00;96182.72;10546051;27;2267;-70
2023/08/21 05:38:42;;;;;;;;;;;;;;;23.72;100.00;96181.56;10554135;27;1945;-70
2023/08/21 05:43:48;;;;;;;;;;;;;;;23.73;100.00;96185.94;10566313;27;2083;-70
2023/08/21 05:48:56;;;;;;;;;;;;;;;24.04;100.00;96189.91;10559749;27;2107;-72
2023/08/21 05:54:02;;;;;;;;;;;;;;;24.00;100.00;96186.28;10580258;27;2010;-70
2023/08/21 05:59:08;;;;;;;;;;;;;;;24.00;100.00;96197.28;10546518;27;2045;-71
2023/08/21 06:04:12;;;;;;;;;;;;;;;24.42;100.00;96188.59;10566720;27;2085;-69
2023/08/21 06:09:19;;;;;;;;;;;;;;;24.56;100.00;96202.75;10558765;27;2034;-71
2023/08/21 06:14:32;;;;;;;;;;;;;;;24.48;100.00;96195.44;10568841;27;1942;-70
2023/08/21 06:19:35;;;;;;;;;;;;;;;24.76;100.00;96193.44;10563340;27;1990;-71
2023/08/21 06:24:48;;;;;;;;;;;;;;;24.69;100.00;96193.25;10543385;27;2419;-71
2023/08/21 06:29:54;;;;;;;;;;;;;;;25.24;100.00;96196.94;10554852;27;2000;-71
2023/08/21 06:34:58;;;;;;;;;;;;;;;25.39;100.00;96194.53;10545836;27;2004;-72
2023/08/21 06:40:02;;;;;;;;;;;;;;;25.54;100.00;96200.00;10559681;27;5183;-70
2023/08/21 06:45:06;;;;;;;;;;;;;;;25.36;100.00;96195.25;10567932;27;1970;-73
2023/08/21 06:50:11;;;;;;;;;;;;;;;25.96;100.00;96206.78;10561732;27;1975;-71
2023/08/21 06:55:19;;;;;;;;;;;;;;;25.86;100.00;96203.47;10564093;27;2070;-73
2023/08/21 07:00:22;;;;;;;;;;;;;;;26.19;100.00;96202.16;10576606;27;1902;-72
2023/08/21 07:05:26;;;;;;;;;;;;;;;26.05;100.00;96201.88;10546924;27;2050;-71
2023/08/21 07:10:30;;;;;;;;;;;;;;;26.47;100.00;96207.44;10561590;27;2045;-73
2023/08/21 07:15:33;;;;;;;;;;;;;;;26.79;100.00;96209.97;10558347;27;1918;-71
2023/08/21 07:20:39;;;;;;;;;;;;;;;26.73;100.00;96215.00;10574306;27;2243;-73
2023/08/21 07:25:43;;;;;;;;;;;;;;;27.30;100.00;96215.16;10567182;27;1903;-71
2023/08/21 07:30:50;;;;;;;;;;;;;;;27.16;100.00;96205.47;10543773;27;1940;-73
2023/08/21 07:35:54;;;;;;;;;;;;;;;27.29;100.00;96208.81;10542642;27;1970;-70
2023/08/21 07:40:57;;;;;;;;;;;;;;;27.57;100.00;96213.19;10577205;27;5220;-72
2023/08/21 07:46:01;;;;;;;;;;;;;;;28.16;100.00;96206.09;10565907;28;1603;-71
2023/08/21 07:51:05;;;;;;;;;;;;;;;28.30;100.00;96211.78;10548753;28;1516;-75
2023/08/21 07:56:11;;;;;;;;;;;;;;;28.42;100.00;96210.75;10565668;28;2013;-71
2023/08/21 08:01:16;;;;;;;;;;;;;;;27.73;100.00;96205.53;10567566;27;1416;-71
2023/08/21 08:06:23;;;;;;;;;;;;;;;28.08;100.00;96204.41;10565579;28;1595;-71
2023/08/21 08:11:26;;;;;;;;;;;;;;;28.47;100.00;96205.69;10552694;28;1508;-69
2023/08/21 08:16:32;;;;;;;;;;;;;;;28.84;100.00;96212.38;10563668;28;2267;-71
2023/08/21 08:21:37;;;;;;;;;;;;;;;29.00;100.00;96213.72;10561665;28;1498;-71
2023/08/21 08:26:43;;;;;;;;;;;;;;;29.09;100.00;96213.41;10569978;28;1549;-70
2023/08/21 08:31:46;;;;;;;;;;;;;;;29.13;100.00;96214.22;10551986;28;1932;-71
2023/08/21 08:36:51;;;;;;;;;;;;;;;28.93;100.00;96207.31;10574901;27;1886;-74
2023/08/21 08:41:56;;;;;;;;;;;;;;;28.58;100.00;96210.53;10570726;27;5152;-71
2023/08/21 08:47:00;;;;;;;;;;;;;;;28.95;100.00;96205.00;10571143;28;1602;-72
2023/08/21 08:52:05;;;;;;;;;;;;;;;29.25;100.00;96205.59;10553528;28;1509;-70
2023/08/21 08:57:09;;;;;;;;;;;;;;;29.62;100.00;96210.22;10572409;27;1914;-71
2023/08/21 09:02:14;;;;;;;;;;;;;;;30.09;94.84;96203.75;10574608;27;1435;-70
2023/08/21 09:07:17;;;;;;;;;;;;;;;30.16;94.00;96203.03;10569869;27;1635;-71
2023/08/21 09:12:26;;;;;;;;;;;;;;;30.05;85.80;96202.16;10570968;27;2355;-70
2023/08/21 09:17:30;;;;;;;;;;;;;;;30.12;88.62;96203.00;10566387;27;1972;-71
2023/08/21 09:22:32;;;;;;;;;;;;;;;30.67;87.54;96200.00;10568783;27;1503;-69
2023/08/21 09:27:37;;;;;;;;;;;;;;;30.23;83.90;96196.69;10570461;27;1547;-68
2023/08/21 09:32:42;;;;;;;;;;;;;;;30.80;77.02;96197.66;10551282;28;1527;-69
2023/08/21 09:37:47;;;;;;;;;;;;;;;30.75;78.13;96200.03;10568960;28;1918;-68
2023/08/21 09:42:53;;;;;;;;;;;;;;;30.60;76.08;96199.97;10575165;28;1497;-68
2023/08/21 09:47:58;;;;;;;;;;;;;;;30.76;71.40;96196.06;10560523;27;2185;-69
2023/08/21 09:53:02;;;;;;;;;;;;;;;30.71;76.85;96182.56;10562543;27;1963;-68
2023/08/21 09:58:04;;;;;;;;;;;;;;;31.35;73.17;96182.59;10561551;27;1960;-68
2023/08/21 10:03:09;;;;;;;;;;;;;;;31.30;74.21;96181.03;10559440;27;1978;-68
2023/08/21 10:08:15;;;;;;;;;;;;;;;31.16;73.61;96178.22;10560770;27;2557;-69
2023/08/21 10:13:18;;;;;;;;;;;;;;;31.53;71.54;96172.22;10536838;27;2045;-70
2023/08/21 10:18:23;;;;;;;;;;;;;;;31.45;66.30;96167.91;10564055;27;1926;-71
2023/08/21 10:23:27;;;;;;;;;;;;;;;31.47;65.00;96165.50;10552063;27;2046;-69
2023/08/21 10:28:31;;;;;;;;;;;;;;;31.72;60.95;96169.00;10554263;27;2021;-70
2023/08/21 10:33:34;;;;;;;;;;;;;;;31.69;53.46;96169.81;10561721;27;2160;-69
2023/08/21 10:38:39;;;;;;;;;;;;;;;31.44;59.29;96174.66;10564486;27;1985;-69
2023/08/21 10:43:43;;;;;;;;;;;;;;;31.51;64.85;96162.72;10542455;28;5140;-70
2023/08/21 10:48:46;;;;;;;;;;;;;;;31.62;59.62;96157.91;10542347;27;1984;-70
2023/08/21 10:53:52;;;;;;;;;;;;;;;31.29;60.01;96162.75;10561092;27;1986;-70
2023/08/21 10:58:56;;;;;;;;;;;;;;;31.56;59.60;96163.13;10551876;28;1993;-69
2023/08/21 11:04:00;;;;;;;;;;;;;;;31.69;57.96;96164.25;10562827;27;2393;-69
2023/08/21 11:09:05;;;;;;;;;;;;;;;31.79;57.96;96159.88;10565151;27;1493;-69
2023/08/21 11:14:09;;;;;;;;;;;;;;;31.47;56.74;96180.19;10564773;28;1913;-69
2023/08/21 11:19:16;;;;;;;;;;;;;;;31.49;58.42;96171.44;10549451;28;1500;-69
2023/08/21 11:24:21;;;;;;;;;;;;;;;31.58;62.34;96169.06;10561258;28;1528;-69
2023/08/21 11:29:25;;;;;;;;;;;;;;;32.00;58.11;96164.56;10562905;28;1523;-69
2023/08/21 11:34:28;;;;;;;;;;;;;;;31.62;58.46;96164.28;10567981;27;1897;-69
2023/08/21 11:39:31;;;;;;;;;;;;;;;31.67;67.05;96163.06;10567356;28;1479;-69
2023/08/21 11:44:34;;;;;;;;;;;;;;;31.86;60.74;96159.06;10566810;27;1607;-69
2023/08/21 11:49:37;;;;;;;;;;;;;;;31.89;62.17;96155.50;10548456;28;1647;-69
2023/08/21 11:54:42;;;;;;;;;;;;;;;31.94;68.41;96153.09;10571074;28;1910;-70
2023/08/21 11:59:45;;;;;;;;;;;;;;;32.00;66.58;96142.31;10547745;28;2294;-69
2023/08/21 12:04:49;;;;;;;;;;;;;;;32.22;65.58;96146.59;10567316;28;1476;-70
2023/08/21 12:09:53;;;;;;;;;;;;;;;32.16;61.24;96147.41;10568592;28;1455;-69
2023/08/21 12:14:56;;;;;;;;;;;;;;;32.23;61.82;96147.38;10549033;28;1911;-68
2023/08/21 12:19:59;;;;;;;;;;;;;;;32.17;60.39;96144.22;10566894;28;1589;-69
2023/08/21 12:25:04;;;;;;;;;;;;;;;32.33;61.15;96135.44;10547891;28;1487;-73
2023/08/21 12:30:09;;;;;;;;;;;;;;;32.48;55.83;96136.91;10559846;28;1423;-70
2023/08/21 12:35:12;;;;;;;;;;;;;;;32.55;59.41;96124.94;10567499;28;1963;-69
2023/08/21 12:40:15;;;;;;;;;;;;;;;32.74;54.66;96135.53;10543747;28;5013;-69
2023/08/21 12:45:18;;;;;;;;;;;;;;;32.76;55.36;96123.97;10566914;28;1682;-69
2023/08/21 12:50:22;;;;;;;;;;;;;;;32.95;55.44;96119.88;10564252;28;1479;-69
2023/08/21 12:55:25;;;;;;;;;;;;;;;33.20;56.84;96114.09;10549914;28;2110;-69
2023/08/21 13:00:28;;;;;;;;;;;;;;;33.49;55.41;96106.25;10548725;28;1881;-69
2023/08/21 13:05:31;;;;;;;;;;;;;;;33.20;53.03;96106.50;10566045;28;1507;-69
2023/08/21 13:10:35;;;;;;;;;;;;;;;33.05;54.61;96110.66;10566074;28;1456;-69
2023/08/21 13:15:38;;;;;;;;;;;;;;;32.98;55.38;96105.16;10575221;27;1982;-69
2023/08/21 13:20:42;;;;;;;;;;;;;;;33.08;53.93;96109.81;10552036;28;1520;-69
2023/08/21 13:25:45;;;;;;;;;;;;;;;33.42;56.36;96103.56;10570794;28;1539;-69
2023/08/21 13:30:50;;;;;;;;;;;;;;;33.50;54.52;96091.13;10552481;27;1504;-70
2023/08/21 13:35:54;;;;;;;;;;;;;;;33.56;54.50;96083.88;10570238;28;1968;-70
2023/08/21 13:40:57;;;;;;;;;;;;;;;33.21;55.30;96085.03;10540903;27;5275;-69
2023/08/21 13:46:05;;;;;;;;;;;;;;;33.18;59.02;96071.94;10541989;27;1967;-69
2023/08/21 13:51:10;;;;;;;;;;;;;;;33.33;57.82;96074.13;10582285;27;1972;-69
2023/08/21 13:56:13;;;;;;;;;;;;;;;33.15;57.86;96076.34;10548201;27;2066;-69
2023/08/21 14:01:16;;;;;;;;;;;;;;;33.23;58.34;96063.91;10575832;27;2037;-70
2023/08/21 14:06:20;;;;;;;;;;;;;;;33.39;56.65;96054.19;10546345;27;1984;-70
2023/08/21 14:11:24;;;;;;;;;;;;;;;33.20;57.01;96058.38;10566667;27;1992;-68
2023/08/21 14:16:29;;;;;;;;;;;;;;;33.22;54.50;96051.19;10562121;27;2323;-69
2023/08/21 14:21:33;;;;;;;;;;;;;;;33.15;54.68;96054.06;10562405;27;2095;-68
2023/08/21 14:26:36;;;;;;;;;;;;;;;33.43;53.82;96058.53;10542426;27;1958;-68
2023/08/21 14:31:41;;;;;;;;;;;;;;;33.33;51.94;96049.06;10567677;27;2038;-68
2023/08/21 14:36:45;;;;;;;;;;;;;;;33.28;52.95;96055.13;10563966;27;1979;-69
2023/08/21 14:41:49;;;;;;;;;;;;;;;33.10;53.72;96048.16;10545012;28;2042;-70
2023/08/21 14:46:54;;;;;;;;;;;;;;;33.18;53.93;96044.88;10567356;27;1985;-70
2023/08/21 14:52:03;;;;;;;;;;;;;;;33.21;50.27;96032.91;10562743;27;2825;-70
2023/08/21 14:57:06;;;;;;;;;;;;;;;33.35;51.58;96038.31;10561171;27;1983;-72
2023/08/21 15:02:10;;;;;;;;;;;;;;;33.25;50.68;96039.22;10559233;28;2074;-69
2023/08/21 15:07:13;;;;;;;;;;;;;;;33.21;51.68;96048.81;10555689;27;1970;-70
2023/08/21 15:12:23;;;;;;;;;;;;;;;33.19;52.18;96029.72;10562991;27;2006;-71
2023/08/21 15:17:27;;;;;;;;;;;;;;;33.17;55.68;96037.72;10542027;27;2086;-70
2023/08/21 15:22:35;;;;;;;;;;;;;;;32.97;56.24;96036.75;10558362;27;2122;-70
2023/08/21 15:27:39;;;;;;;;;;;;;;;33.08;56.55;96029.06;10565874;27;1943;-70
2023/08/21 15:32:44;;;;;;;;;;;;;;;32.98;59.22;96027.19;10565625;27;1888;-70
2023/08/21 15:37:54;;;;;;;;;;;;;;;32.93;57.18;96022.06;10561573;28;1918;-70
2023/08/21 15:43:11;;;;;;;;;;;;;;;32.81;58.07;96020.56;10559379;28;5127;-70
2023/08/21 15:48:17;;;;;;;;;;;;;;;32.79;57.74;96020.97;10564663;27;2284;-71
2023/08/21 15:53:22;;;;;;;;;;;;;;;32.74;60.67;96015.84;10568281;27;1973;-71
2023/08/21 15:58:28;;;;;;;;;;;;;;;32.47;59.49;96012.13;10563656;27;1951;-70
2023/08/21 16:03:33;;;;;;;;;;;;;;;32.44;62.87;96001.81;10548078;27;1979;-70
2023/08/21 16:08:41;;;;;;;;;;;;;;;32.03;62.31;96005.28;10552646;28;1931;-71
2023/08/21 16:13:48;;;;;;;;;;;;;;;32.07;66.72;95997.72;10572208;27;2073;-71
2023/08/21 16:18:52;;;;;;;;;;;;;;;31.80;66.68;95985.56;10563565;28;1964;-72
2023/08/21 16:24:04;;;;;;;;;;;;;;;31.57;68.10;95995.22;10561183;28;2018;-73
2023/08/21 16:29:08;;;;;;;;;;;;;;;31.62;69.84;95992.00;10559702;28;1978;-71
2023/08/21 16:34:16;;;;;;;;;;;;;;;31.58;68.56;95991.22;10538868;28;1970;-72
2023/08/21 16:39:24;;;;;;;;;;;;;;;31.41;70.01;95987.34;10563543;28;1930;-71
2023/08/21 16:44:28;;;;;;;;;;;;;;;31.30;71.69;95986.63;10547857;28;4938;-70
2023/08/21 16:49:38;;;;;;;;;;;;;;;31.22;72.79;95994.13;10559675;27;2006;-71
2023/08/21 16:54:43;;;;;;;;;;;;;;;31.24;70.93;95995.72;10569508;27;1869;-71
2023/08/21 16:59:48;;;;;;;;;;;;;;;31.08;74.81;95996.97;10581411;27;1992;-72
2023/08/21 17:04:51;;;;;;;;;;;;;;;31.00;76.38;95989.06;10589968;27;1892;-71
2023/08/21 17:09:55;;;;;;;;;;;;;;;30.84;79.05;95986.72;10546795;27;1970;-73
2023/08/21 17:14:58;;;;;;;;;;;;;;;30.75;78.87;95978.81;10571007;27;1829;-74
2023/08/21 17:20:12;;;;;;;;;;;;;;;30.70;82.15;95981.19;10568414;27;1914;-74
2023/08/21 17:25:18;;;;;;;;;;;;;;;30.53;82.88;95986.34;10569542;27;1833;-73
2023/08/21 17:30:22;;;;;;;;;;;;;;;30.33;86.36;95990.72;10561770;27;1869;-74
2023/08/21 17:35:25;;;;;;;;;;;;;;;30.20;88.66;95986.75;10561205;27;1987;-76
2023/08/21 17:40:31;;;;;;;;;;;;;;;30.09;87.77;95993.06;10571097;27;5017;-72
2023/08/21 17:45:37;;;;;;;;;;;;;;;29.88;91.65;95993.81;10567703;27;1758;-74
2023/08/21 17:50:44;;;;;;;;;;;;;;;29.80;92.38;95994.22;10556505;27;1818;-73
2023/08/21 17:55:50;;;;;;;;;;;;;;;29.60;92.35;95994.56;10569535;27;1929;-74
2023/08/21 18:01:04;;;;;;;;;;;;;;;29.43;93.54;95994.47;10567427;27;1678;-72
2023/08/21 18:06:08;;;;;;;;;;;;;;;29.31;95.02;96003.94;10552346;27;1882;-73
2023/08/21 18:11:13;;;;;;;;;;;;;;;29.08;96.87;96007.78;10572294;27;1854;-72
2023/08/21 18:16:19;;;;;;;;;;;;;;;28.91;97.75;96014.00;10568061;27;1943;-72
2023/08/21 18:21:23;;;;;;;;;;;;;;;28.76;98.11;96010.34;10558087;27;1780;-71
2023/08/21 18:26:27;;;;;;;;;;;;;;;28.70;98.89;96016.63;10562023;27;1896;-72
2023/08/21 18:31:31;;;;;;;;;;;;;;;28.53;100.00;96018.09;10537055;28;1887;-73
2023/08/21 18:36:38;;;;;;;;;;;;;;;28.34;100.00;96024.66;10559710;27;2241;-72
2023/08/21 18:41:42;;;;;;;;;;;;;;;28.23;100.00;96030.06;10555858;27;5048;-72
2023/08/21 18:46:47;;;;;;;;;;;;;;;28.01;100.00;96033.81;10544622;27;1901;-73
2023/08/21 18:51:53;;;;;;;;;;;;;;;27.84;100.00;96039.94;10562900;28;1892;-72
2023/08/21 18:56:57;;;;;;;;;;;;;;;27.76;100.00;96039.09;10564025;27;1942;-74
2023/08/21 19:02:00;;;;;;;;;;;;;;;27.69;100.00;96052.81;10548909;27;2136;-75
2023/08/21 19:07:14;;;;;;;;;;;;;;;27.64;100.00;96047.59;10555484;27;1836;-76
2023/08/21 19:12:22;;;;;;;;;;;;;;;27.55;100.00;96045.16;10561419;27;1938;-74
2023/08/21 19:17:33;;;;;;;;;;;;;;;27.51;100.00;96046.25;10565161;27;2082;-73
2023/08/21 19:22:40;;;;;;;;;;;;;;;27.41;100.00;96053.22;10560858;27;1864;-75
2023/08/21 19:27:48;;;;;;;;;;;;;;;27.30;100.00;96044.84;10559676;27;1901;-75
2023/08/21 19:32:52;;;;;;;;;;;;;;;27.21;100.00;96052.59;10572946;27;2261;-76
2023/08/21 19:37:56;;;;;;;;;;;;;;;27.07;100.00;96057.94;10524023;27;1967;-75
2023/08/21 19:43:01;;;;;;;;;;;;;;;26.97;100.00;96058.53;10570389;27;1908;-76
2023/08/21 19:48:05;;;;;;;;;;;;;;;26.79;100.00;96052.78;10547838;28;1806;-76
2023/08/21 19:53:08;;;;;;;;;;;;;;;26.70;100.00;96066.03;10561460;28;1820;-75
2023/08/21 19:58:15;;;;;;;;;;;;;;;26.63;100.00;96055.69;10564221;27;1984;-75
2023/08/21 20:03:21;;;;;;;;;;;;;;;26.42;100.00;96052.59;10565481;28;1860;-74
2023/08/21 20:08:30;;;;;;;;;;;;;;;26.42;100.00;96053.38;10560595;27;1986;-74
2023/08/21 20:13:49;;;;;;;;;;;;;;;26.42;100.00;96050.63;10560804;27;1655;-73
2023/08/21 20:19:03;;;;;;;;;;;;;;;26.32;100.00;96053.97;10542294;28;2028;-75
2023/08/21 20:24:24;;;;;;;;;;;;;;;26.17;100.00;96050.19;10567026;27;1789;-76
2023/08/21 20:29:28;;;;;;;;;;;;;;;26.09;100.00;96052.03;10570039;27;2410;-76
2023/08/21 20:34:42;;;;;;;;;;;;;;;26.03;100.00;96050.75;10566836;27;2034;-76
2023/08/21 20:39:51;;;;;;;;;;;;;;;25.92;100.00;96059.97;10569508;27;2141;-76
2023/08/21 20:44:55;;;;;;;;;;;;;;;25.95;100.00;96059.22;10573983;27;1869;-76
2023/08/21 20:50:00;;;;;;;;;;;;;;;25.90;100.00;96067.81;10557060;28;2007;-74
2023/08/21 20:55:10;;;;;;;;;;;;;;;25.79;100.00;96059.34;10570002;27;1914;-74
2023/08/21 21:00:26;;;;;;;;;;;;;;;25.68;100.00;96053.59;10567013;27;2020;-76
2023/08/21 21:05:34;;;;;;;;;;;;;;;25.62;100.00;96057.78;10566253;27;1895;-75
2023/08/21 21:10:40;;;;;;;;;;;;;;;25.47;100.00;96058.69;10567739;28;1853;-75
2023/08/21 21:21:22;;;;;;;;;;;;;;;25.32;100.00;96055.66;10569143;27;2279;-80
2023/08/21 21:26:30;;;;;;;;;;;;;;;25.32;100.00;96060.34;10571541;27;1853;-80
2023/08/21 21:31:34;;;;;;;;;;;;;;;25.16;100.00;96057.66;10572004;27;1963;-86
2023/08/21 21:36:43;;;;;;;;;;;;;;;25.10;100.00;96052.81;10572360;27;1977;-79
2023/08/21 21:41:47;;;;;;;;;;;;;;;25.07;100.00;96051.56;10563637;27;5017;-80
2023/08/21 21:46:56;;;;;;;;;;;;;;;25.01;100.00;96042.00;10567974;27;1801;-77
2023/08/21 21:52:03;;;;;;;;;;;;;;;24.99;100.00;96041.53;10565303;27;1774;-79
2023/08/21 21:57:12;;;;;;;;;;;;;;;24.87;100.00;96038.91;10563997;27;1901;-79
2023/08/21 22:02:23;;;;;;;;;;;;;;;24.73;100.00;96036.63;10544287;27;1904;-77
2023/08/21 22:07:26;;;;;;;;;;;;;;;24.66;100.00;96031.78;10541428;27;1948;-75
2023/08/21 22:12:34;;;;;;;;;;;;;;;24.61;100.00;96029.31;10557502;27;2060;-75
2023/08/21 22:17:43;;;;;;;;;;;;;;;24.58;100.00;96038.28;10545462;27;2184;-73
2023/08/21 22:22:47;;;;;;;;;;;;;;;24.47;100.00;96038.00;10562093;27;1860;-73
2023/08/21 22:28:04;;;;;;;;;;;;;;;24.35;100.00;96049.09;10543661;27;2116;-73
2023/08/21 22:33:15;;;;;;;;;;;;;;;24.26;100.00;96043.78;10562017;27;1820;-72
2023/08/21 22:38:19;;;;;;;;;;;;;;;24.24;100.00;96043.34;10556285;27;2041;-73
2023/08/21 22:43:30;;;;;;;;;;;;;;;24.26;100.00;96035.53;10560338;27;5180;-76
2023/08/21 22:48:34;;;;;;;;;;;;;;;24.16;100.00;96022.31;10557419;27;1907;-74
2023/08/21 22:53:37;;;;;;;;;;;;;;;24.09;100.00;96024.09;10542898;27;1868;-72
2023/08/21 22:58:44;;;;;;;;;;;;;;;24.08;100.00;96028.78;10564463;27;1915;-73
2023/08/21 23:03:52;;;;;;;;;;;;;;;24.10;100.00;96023.75;10565896;27;1909;-74
2023/08/21 23:08:58;;;;;;;;;;;;;;;24.06;100.00;96019.34;10556621;27;1885;-74
2023/08/21 23:14:10;;;;;;;;;;;;;;;23.94;100.00;96020.22;10535504;27;2249;-75
2023/08/21 23:19:18;;;;;;;;;;;;;;;23.84;100.00;96017.97;10555756;27;1976;-75
2023/08/21 23:24:23;;;;;;;;;;;;;;;23.84;100.00;96021.50;10559308;27;1844;-74
2023/08/21 23:29:31;;;;;;;;;;;;;;;23.83;100.00;96010.88;10549824;27;1895;-75
2023/08/21 23:34:36;;;;;;;;;;;;;;;23.65;100.00;96013.16;10562769;27;1929;-73
2023/08/21 23:39:39;;;;;;;;;;;;;;;23.70;100.00;96015.66;10563704;28;1914;-74
2023/08/21 23:44:47;;;;;;;;;;;;;;;23.62;100.00;96009.19;10547347;28;1973;-74
2023/08/21 23:49:51;;;;;;;;;;;;;;;23.82;100.00;96001.06;10558284;27;1829;-74
2023/08/21 23:54:54;;;;;;;;;;;;;;;23.94;100.00;96004.53;10559343;28;1904;-74
2023/08/21 23:59:59;;;;;;;;;;;;;;;23.88;100.00;95999.66;10573371;27;1975;-74
